createdAt,value
2022-12-31T00:02:21.320Z,49.67
2022-12-31T00:04:49.321Z,54.00
2022-12-31T00:07:17.205Z,51.85
2022-12-31T00:09:46.537Z,51.78
2022-12-31T00:12:14.598Z,53.55
2022-12-31T00:14:42.482Z,52.38
2022-12-31T00:17:10.469Z,50.42
2022-12-31T00:19:38.553Z,50.35
2022-12-31T00:22:06.497Z,50.85
2022-12-31T00:24:35.964Z,51.20
2022-12-31T00:27:05.308Z,50.72
2022-12-31T00:29:33.291Z,55.65
2022-12-31T00:32:01.313Z,55.55
2022-12-31T00:34:29.219Z,63.70
2022-12-31T00:36:57.091Z,61.90
2022-12-31T00:39:25.036Z,55.70
2022-12-31T00:41:52.966Z,52.90
2022-12-31T00:44:22.279Z,54.15
2022-12-31T00:46:50.187Z,54.50
2022-12-31T00:49:18.352Z,58.05
2022-12-31T00:51:46.761Z,57.65
2022-12-31T00:54:15.866Z,78.63
2022-12-31T00:56:43.772Z,78.18
2022-12-31T00:59:11.779Z,85.30
2022-12-31T01:01:41.893Z,75.50
2022-12-31T01:04:12.384Z,68.32
2022-12-31T01:06:40.935Z,72.00
2022-12-31T01:09:09.432Z,74.00
2022-12-31T01:11:37.782Z,70.25
2022-12-31T01:14:07.943Z,71.65
2022-12-31T01:16:41.279Z,68.05
2022-12-31T01:19:11.229Z,70.60
2022-12-31T01:21:40.280Z,70.82
2022-12-31T01:24:09.041Z,64.10
2022-12-31T01:26:37.763Z,64.90
2022-12-31T01:29:06.292Z,73.75
2022-12-31T01:31:35.264Z,83.10
2022-12-31T01:34:05.262Z,79.32
2022-12-31T01:36:35.106Z,83.57
2022-12-31T01:39:05.464Z,122.07
2022-12-31T01:41:36.264Z,84.78
2022-12-31T01:44:24.895Z,95.97
2022-12-31T01:46:56.035Z,87.80
2022-12-31T01:49:30.830Z,86.05
2022-12-31T01:52:03.852Z,92.82
2022-12-31T01:54:36.545Z,90.65
2022-12-31T01:57:05.394Z,85.78
2022-12-31T01:59:34.846Z,70.50
2022-12-31T02:02:03.381Z,80.28
2022-12-31T02:04:32.948Z,70.93
2022-12-31T02:07:03.030Z,72.80
2022-12-31T02:09:32.455Z,77.10
2022-12-31T02:12:00.586Z,71.95
2022-12-31T02:14:31.746Z,73.28
2022-12-31T02:17:08.461Z,75.93
2022-12-31T02:20:12.239Z,80.35
2022-12-31T02:23:10.347Z,78.47
2022-12-31T02:26:02.035Z,75.68
2022-12-31T02:29:06.679Z,75.68
2022-12-31T02:31:40.661Z,76.60
2022-12-31T02:34:15.212Z,85.38
2022-12-31T02:36:48.112Z,77.38
2022-12-31T02:39:16.826Z,77.78
2022-12-31T02:41:51.185Z,78.90
2022-12-31T02:44:26.750Z,72.90
2022-12-31T02:47:08.131Z,73.88
2022-12-31T02:49:44.065Z,73.18
2022-12-31T02:52:18.612Z,73.20
2022-12-31T02:54:54.549Z,73.20
2022-12-31T02:57:31.881Z,69.13
2022-12-31T03:00:21.815Z,65.82
2022-12-31T03:02:53.318Z,69.80
2022-12-31T03:05:25.069Z,67.88
2022-12-31T03:07:53.326Z,72.18
2022-12-31T03:10:21.886Z,71.25
2022-12-31T03:12:49.346Z,66.90
2022-12-31T03:15:22.834Z,66.53
2022-12-31T03:17:55.203Z,67.15
2022-12-31T03:20:43.522Z,64.97
2022-12-31T03:23:14.845Z,85.47
2022-12-31T03:25:42.964Z,92.60
2022-12-31T03:28:13.644Z,97.22
2022-12-31T03:30:45.041Z,95.28
2022-12-31T03:33:15.364Z,86.82
2022-12-31T03:35:45.648Z,88.22
2022-12-31T03:38:13.682Z,76.68
2022-12-31T03:40:44.179Z,84.20
2022-12-31T03:43:12.551Z,87.60
2022-12-31T03:45:40.984Z,84.93
2022-12-31T03:48:10.564Z,105.95
2022-12-31T03:50:40.026Z,78.60
2022-12-31T03:53:08.131Z,78.65
2022-12-31T03:55:36.101Z,83.85
2022-12-31T03:58:04.146Z,82.75
2022-12-31T04:00:32.248Z,75.25
2022-12-31T04:03:00.213Z,88.45
2022-12-31T04:05:28.164Z,92.72
2022-12-31T04:07:57.624Z,107.10
2022-12-31T04:10:25.565Z,96.85
2022-12-31T04:12:53.538Z,86.13
2022-12-31T04:15:22.525Z,84.30
2022-12-31T04:17:50.550Z,89.70
2022-12-31T04:20:18.776Z,77.97
2022-12-31T04:22:46.713Z,85.50
2022-12-31T04:25:16.237Z,78.90
2022-12-31T04:27:44.747Z,76.85
2022-12-31T04:30:14.229Z,65.90
2022-12-31T04:32:42.416Z,62.83
2022-12-31T04:35:11.757Z,60.13
2022-12-31T04:37:39.749Z,58.05
2022-12-31T04:40:09.542Z,53.85
2022-12-31T04:42:39.114Z,52.40
2022-12-31T04:45:08.263Z,51.67
2022-12-31T04:47:36.198Z,49.58
2022-12-31T04:50:04.315Z,49.60
2022-12-31T04:52:35.780Z,56.72
2022-12-31T04:55:07.365Z,74.32
2022-12-31T04:57:35.362Z,67.18
2022-12-31T05:00:05.108Z,66.57
2022-12-31T05:02:33.305Z,61.00
2022-12-31T05:05:01.344Z,65.55
2022-12-31T05:07:29.309Z,83.68
2022-12-31T05:09:57.299Z,71.63
2022-12-31T05:12:25.253Z,68.85
2022-12-31T05:14:53.130Z,65.60
2022-12-31T05:17:22.492Z,62.17
2022-12-31T05:19:50.446Z,64.63
2022-12-31T05:22:30.361Z,67.57
2022-12-31T05:24:59.452Z,61.95
2022-12-31T05:27:27.791Z,59.30
2022-12-31T05:29:56.001Z,58.35
2022-12-31T05:32:25.457Z,59.00
2022-12-31T05:34:54.218Z,57.03
2022-12-31T05:37:22.154Z,57.58
2022-12-31T05:39:50.194Z,58.55
2022-12-31T05:42:18.092Z,61.03
2022-12-31T05:44:46.254Z,63.83
2022-12-31T05:47:14.514Z,65.60
2022-12-31T05:49:44.051Z,62.10
2022-12-31T05:52:12.171Z,61.05
2022-12-31T05:54:40.205Z,60.00
2022-12-31T05:57:08.428Z,61.42
2022-12-31T05:59:36.609Z,50.42
2022-12-31T06:02:04.739Z,46.80
2022-12-31T06:04:33.190Z,45.72
2022-12-31T06:07:02.474Z,45.70
2022-12-31T06:09:30.407Z,47.53
2022-12-31T06:11:58.490Z,44.45
2022-12-31T06:14:26.404Z,43.90
2022-12-31T06:16:54.281Z,44.10
2022-12-31T06:19:22.322Z,41.35
2022-12-31T06:21:50.284Z,38.65
2022-12-31T06:24:19.911Z,41.55
2022-12-31T06:26:47.914Z,42.05
2022-12-31T06:29:15.983Z,40.28
2022-12-31T06:31:43.959Z,42.22
2022-12-31T06:34:12.533Z,42.78
2022-12-31T06:36:40.518Z,42.80
2022-12-31T06:39:08.499Z,47.35
2022-12-31T06:41:37.971Z,45.08
2022-12-31T06:44:06.390Z,45.20
2022-12-31T06:46:34.450Z,57.22
2022-12-31T06:49:02.614Z,45.13
2022-12-31T06:51:30.560Z,45.00
2022-12-31T06:53:58.512Z,46.50
2022-12-31T06:56:34.050Z,40.13
2022-12-31T06:59:05.686Z,37.45
2022-12-31T07:01:52.340Z,42.58
2022-12-31T07:04:59.157Z,41.58
2022-12-31T07:07:34.083Z,42.03
2022-12-31T07:10:12.177Z,45.13
2022-12-31T07:12:55.270Z,44.63
2022-12-31T07:15:38.070Z,41.65
2022-12-31T07:18:16.175Z,45.05
2022-12-31T07:20:44.713Z,46.63
2022-12-31T07:23:13.206Z,44.28
2022-12-31T07:25:45.348Z,42.85
2022-12-31T07:28:25.123Z,42.83
2022-12-31T07:31:05.270Z,41.08
2022-12-31T07:33:44.769Z,40.67
2022-12-31T07:36:23.861Z,42.58
2022-12-31T07:38:56.893Z,41.85
2022-12-31T07:41:42.138Z,43.40
2022-12-31T07:44:25.836Z,41.25
2022-12-31T07:46:57.712Z,42.08
2022-12-31T07:49:27.216Z,41.53
2022-12-31T07:51:56.236Z,38.75
2022-12-31T07:54:24.445Z,37.53
2022-12-31T07:56:52.959Z,39.15
2022-12-31T07:59:38.464Z,38.20
2022-12-31T08:02:18.369Z,38.35
2022-12-31T08:04:54.868Z,42.28
2022-12-31T08:07:32.028Z,49.60
2022-12-31T08:10:10.163Z,46.88
2022-12-31T08:12:42.655Z,47.70
2022-12-31T08:15:14.925Z,38.95
2022-12-31T08:17:45.039Z,43.65
2022-12-31T08:20:15.824Z,45.78
2022-12-31T08:23:10.226Z,40.20
2022-12-31T08:25:49.727Z,43.53
2022-12-31T08:28:30.922Z,38.30
2022-12-31T08:31:03.176Z,32.33
2022-12-31T08:33:40.204Z,35.60
2022-12-31T08:36:18.562Z,36.67
2022-12-31T08:38:54.443Z,38.00
2022-12-31T08:41:29.285Z,36.55
2022-12-31T08:44:09.580Z,38.90
2022-12-31T08:46:46.079Z,41.50
2022-12-31T08:49:16.145Z,43.25
2022-12-31T08:51:44.416Z,46.25
2022-12-31T08:54:13.414Z,42.42
2022-12-31T08:56:50.507Z,42.47
2022-12-31T08:59:33.570Z,37.40
2022-12-31T09:02:21.403Z,34.88
2022-12-31T09:05:01.973Z,31.00
2022-12-31T09:07:37.157Z,32.80
2022-12-31T09:10:17.133Z,32.08
2022-12-31T09:12:53.112Z,29.58
2022-12-31T09:15:27.760Z,24.45
2022-12-31T09:17:56.283Z,23.85
2022-12-31T09:20:41.860Z,22.55
2022-12-31T09:23:11.223Z,24.10
2022-12-31T09:25:44.269Z,24.92
2022-12-31T09:28:19.737Z,24.83
2022-12-31T09:30:55.919Z,23.52
2022-12-31T09:33:37.531Z,25.40
2022-12-31T09:36:09.010Z,26.23
2022-12-31T09:38:45.281Z,28.98
2022-12-31T09:41:15.660Z,31.50
2022-12-31T09:44:26.390Z,30.83
2022-12-31T09:47:39.145Z,33.78
2022-12-31T09:50:29.938Z,32.28
2022-12-31T09:53:27.802Z,29.75
2022-12-31T09:56:04.070Z,24.15
2022-12-31T09:58:45.353Z,26.73
2022-12-31T10:01:29.049Z,25.75
2022-12-31T10:04:23.513Z,25.13
2022-12-31T10:07:03.325Z,25.77
2022-12-31T10:09:56.747Z,23.67
2022-12-31T10:13:03.206Z,24.17
2022-12-31T10:16:05.077Z,24.38
2022-12-31T10:18:52.818Z,27.88
2022-12-31T10:21:33.994Z,23.83
2022-12-31T10:24:21.234Z,22.38
2022-12-31T10:27:05.847Z,20.27
2022-12-31T10:29:43.781Z,20.02
2022-12-31T10:32:24.946Z,19.15
2022-12-31T10:35:01.468Z,18.77
2022-12-31T10:37:35.607Z,19.77
2022-12-31T10:40:16.426Z,18.27
2022-12-31T10:43:22.904Z,19.30
2022-12-31T10:46:23.050Z,20.90
2022-12-31T10:49:26.335Z,21.50
2022-12-31T10:52:39.772Z,20.55
2022-12-31T10:55:50.570Z,21.83
2022-12-31T10:58:51.989Z,16.20
2022-12-31T11:01:33.831Z,14.10
2022-12-31T11:04:46.382Z,13.02
2022-12-31T11:07:54.683Z,12.80
2022-12-31T11:11:06.038Z,14.73
2022-12-31T11:14:05.188Z,13.48
2022-12-31T11:16:44.295Z,13.73
2022-12-31T11:19:21.754Z,11.55
2022-12-31T11:22:08.384Z,10.77
2022-12-31T11:24:55.760Z,11.75
2022-12-31T11:27:48.967Z,12.82
2022-12-31T11:30:23.248Z,11.00
2022-12-31T11:33:12.337Z,12.25
2022-12-31T11:35:57.752Z,11.63
2022-12-31T11:38:29.943Z,9.98
2022-12-31T11:41:03.755Z,11.15
2022-12-31T11:43:40.859Z,11.45
2022-12-31T11:46:27.430Z,13.65
2022-12-31T11:49:06.316Z,13.95
2022-12-31T11:51:52.633Z,15.30
2022-12-31T11:54:59.386Z,16.58
2022-12-31T11:57:33.807Z,16.95
2022-12-31T12:00:08.683Z,16.40
2022-12-31T12:02:40.070Z,16.42
2022-12-31T12:05:11.264Z,16.38
2022-12-31T12:07:39.868Z,15.68
2022-12-31T12:10:33.520Z,17.00
2022-12-31T12:13:12.609Z,17.98
2022-12-31T12:15:43.455Z,17.15
2022-12-31T12:18:29.351Z,17.58
2022-12-31T12:21:10.454Z,18.65
2022-12-31T12:23:39.140Z,17.65
2022-12-31T12:26:07.591Z,17.00
2022-12-31T12:28:44.696Z,17.92
2022-12-31T12:31:21.992Z,18.90
2022-12-31T12:33:51.885Z,17.73
2022-12-31T12:36:22.402Z,20.23
2022-12-31T12:38:50.403Z,19.67
2022-12-31T12:41:26.487Z,16.73
2022-12-31T12:44:03.919Z,17.48
2022-12-31T12:46:36.519Z,16.13
2022-12-31T12:49:05.229Z,15.73
2022-12-31T12:51:49.272Z,16.05
2022-12-31T12:54:29.384Z,16.90
2022-12-31T12:57:05.514Z,17.40
2022-12-31T13:00:00.860Z,18.30
2022-12-31T13:02:57.273Z,15.88
2022-12-31T13:05:39.018Z,16.02
2022-12-31T13:08:23.379Z,16.10
2022-12-31T13:11:07.524Z,15.20
2022-12-31T13:13:48.482Z,15.32
2022-12-31T13:16:24.202Z,14.00
2022-12-31T13:19:06.941Z,13.80
2022-12-31T13:21:46.873Z,12.05
2022-12-31T13:24:36.653Z,13.55
2022-12-31T13:27:13.734Z,13.32
2022-12-31T13:29:45.191Z,14.32
2022-12-31T13:32:19.052Z,14.30
2022-12-31T13:34:51.579Z,14.82
2022-12-31T13:37:27.991Z,15.48
2022-12-31T13:40:02.873Z,16.63
2022-12-31T13:45:11.390Z,19.75
2022-12-31T13:47:45.433Z,18.17
2022-12-31T13:50:20.790Z,19.13
2022-12-31T13:52:55.459Z,18.55
2022-12-31T13:55:31.269Z,18.35
2022-12-31T13:58:06.878Z,17.75
2022-12-31T14:00:41.247Z,19.15
2022-12-31T14:03:16.277Z,17.42
2022-12-31T14:05:49.992Z,17.63
2022-12-31T14:08:17.930Z,17.73
2022-12-31T14:11:00.170Z,16.48
2022-12-31T14:13:43.259Z,16.17
2022-12-31T14:16:24.064Z,15.52
2022-12-31T14:19:01.781Z,15.95
2022-12-31T14:21:38.357Z,15.98
2022-12-31T14:24:14.233Z,17.00
2022-12-31T14:26:47.305Z,16.88
2022-12-31T14:29:30.537Z,17.48
2022-12-31T14:32:24.345Z,19.63
2022-12-31T14:35:03.012Z,16.90
2022-12-31T14:37:40.957Z,16.58
2022-12-31T14:40:20.470Z,17.98
2022-12-31T14:43:02.822Z,18.13
2022-12-31T14:45:43.442Z,17.25
2022-12-31T14:48:24.680Z,18.80
2022-12-31T14:50:52.881Z,17.33
2022-12-31T14:53:24.636Z,18.95
2022-12-31T14:56:01.718Z,23.98
2022-12-31T14:58:36.613Z,23.25
2022-12-31T15:03:45.553Z,22.95
2022-12-31T15:06:35.368Z,24.35
2022-12-31T15:09:19.785Z,24.40
2022-12-31T15:12:12.027Z,25.43
2022-12-31T15:14:53.772Z,25.30
2022-12-31T15:17:33.239Z,25.85
2022-12-31T15:20:23.197Z,25.80
2022-12-31T15:22:52.225Z,28.10
2022-12-31T15:25:28.731Z,28.30
2022-12-31T15:27:58.988Z,30.73
2022-12-31T15:30:39.683Z,31.63
2022-12-31T15:33:11.052Z,21.80
2022-12-31T15:35:51.807Z,19.77
2022-12-31T15:38:36.589Z,18.45
2022-12-31T15:41:16.359Z,20.30
2022-12-31T15:43:49.666Z,18.65
2022-12-31T15:46:22.643Z,20.27
2022-12-31T15:49:01.924Z,21.10
2022-12-31T15:51:37.471Z,20.52
2022-12-31T15:54:06.646Z,20.67
2022-12-31T15:56:40.026Z,21.98
2022-12-31T15:59:14.029Z,23.13
2022-12-31T16:01:44.708Z,22.13
2022-12-31T16:04:18.644Z,21.42
2022-12-31T16:06:50.658Z,24.08
2022-12-31T16:09:23.414Z,23.52
2022-12-31T16:11:53.143Z,24.75
2022-12-31T16:14:24.849Z,23.08
2022-12-31T16:16:56.712Z,21.48
2022-12-31T16:19:34.121Z,21.63
2022-12-31T16:22:08.299Z,20.58
2022-12-31T16:24:48.913Z,21.02
2022-12-31T16:27:26.783Z,23.60
2022-12-31T16:30:00.607Z,23.83
2022-12-31T16:32:36.245Z,22.77
2022-12-31T16:35:12.036Z,22.15
2022-12-31T16:37:45.542Z,19.33
2022-12-31T16:40:22.683Z,19.90
2022-12-31T16:42:51.578Z,20.52
2022-12-31T16:45:30.530Z,19.02
2022-12-31T16:48:02.446Z,22.88
2022-12-31T16:50:30.632Z,22.48
2022-12-31T16:53:04.373Z,22.10
2022-12-31T16:55:34.423Z,22.50
2022-12-31T16:58:08.958Z,23.45
2022-12-31T17:00:38.135Z,23.73
2022-12-31T17:03:15.579Z,19.75
2022-12-31T17:05:58.967Z,19.38
2022-12-31T17:08:29.301Z,19.45
2022-12-31T17:10:57.718Z,19.65
2022-12-31T17:13:30.575Z,17.92
2022-12-31T17:15:59.728Z,17.88
2022-12-31T17:18:38.205Z,17.17
2022-12-31T17:21:10.082Z,18.38
2022-12-31T17:23:40.663Z,18.02
2022-12-31T17:26:12.724Z,16.73
2022-12-31T17:28:45.279Z,17.10
2022-12-31T17:31:34.416Z,16.88
2022-12-31T17:34:21.314Z,17.58
2022-12-31T17:37:00.213Z,17.73
2022-12-31T17:39:40.026Z,17.15
2022-12-31T17:42:11.261Z,17.55
2022-12-31T17:44:42.138Z,17.10
2022-12-31T17:47:14.169Z,18.08
2022-12-31T17:49:46.577Z,18.50
2022-12-31T17:52:16.642Z,19.00
2022-12-31T17:54:44.736Z,19.02
2022-12-31T17:57:26.066Z,17.13
2022-12-31T17:59:54.319Z,18.38
2022-12-31T18:02:22.465Z,17.83
2022-12-31T18:04:53.119Z,17.63
2022-12-31T18:07:21.245Z,18.33
2022-12-31T18:09:49.158Z,16.98
2022-12-31T18:12:19.209Z,17.48
2022-12-31T18:14:47.432Z,17.48
2022-12-31T18:17:17.508Z,18.27
2022-12-31T18:20:04.703Z,17.77
2022-12-31T18:22:35.935Z,19.77
2022-12-31T18:25:04.828Z,18.90
2022-12-31T18:27:34.337Z,18.60
2022-12-31T18:30:06.068Z,20.30
2022-12-31T18:32:39.502Z,20.45
2022-12-31T18:35:33.377Z,19.52
2022-12-31T18:38:04.885Z,19.85
2022-12-31T18:40:34.077Z,20.05
2022-12-31T18:43:05.068Z,19.23
2022-12-31T18:45:33.427Z,19.42
2022-12-31T18:48:02.952Z,17.95
2022-12-31T18:50:31.519Z,18.98
2022-12-31T18:53:00.154Z,19.17
2022-12-31T18:55:37.936Z,19.33
2022-12-31T18:58:06.569Z,19.83
2022-12-31T19:00:35.786Z,19.33
2022-12-31T19:03:05.557Z,18.58
2022-12-31T19:05:35.693Z,18.42
2022-12-31T19:08:04.895Z,18.65
2022-12-31T19:10:35.230Z,18.40
2022-12-31T19:13:04.421Z,17.95
2022-12-31T19:15:35.077Z,17.83
2022-12-31T19:18:07.406Z,19.67
2022-12-31T19:20:35.735Z,19.80
2022-12-31T19:23:04.072Z,20.08
2022-12-31T19:25:35.950Z,22.08
2022-12-31T19:28:04.999Z,24.13
2022-12-31T19:30:35.274Z,20.85
2022-12-31T19:33:03.251Z,21.05
2022-12-31T19:35:31.236Z,20.05
2022-12-31T19:37:59.918Z,21.00
2022-12-31T19:40:30.407Z,20.20
2022-12-31T19:42:59.873Z,18.25
2022-12-31T19:45:30.063Z,15.35
2022-12-31T19:47:58.221Z,14.40
2022-12-31T19:50:28.917Z,16.67
2022-12-31T19:52:59.207Z,17.38
2022-12-31T19:55:27.958Z,17.85
2022-12-31T19:57:55.868Z,17.40
2022-12-31T20:00:25.256Z,17.83
2022-12-31T20:02:53.446Z,18.80
2022-12-31T20:05:24.500Z,19.30
2022-12-31T20:07:52.481Z,19.85
2022-12-31T20:10:20.678Z,21.95
2022-12-31T20:12:48.658Z,20.05
2022-12-31T20:15:16.795Z,20.83
2022-12-31T20:17:46.163Z,18.98
2022-12-31T20:20:14.306Z,21.48
2022-12-31T20:22:42.328Z,20.02
2022-12-31T20:25:10.719Z,21.05
2022-12-31T20:27:38.605Z,20.50
2022-12-31T20:30:09.714Z,19.38
2022-12-31T20:32:37.876Z,18.90
2022-12-31T20:35:08.285Z,17.17
2022-12-31T20:37:36.302Z,17.45
2022-12-31T20:40:04.572Z,16.17
2022-12-31T20:42:32.560Z,16.85
2022-12-31T20:45:00.519Z,16.45
2022-12-31T20:47:28.721Z,16.20
2022-12-31T20:50:12.639Z,15.63
2022-12-31T20:52:43.257Z,17.08
2022-12-31T20:55:13.754Z,15.90
2022-12-31T20:57:41.755Z,14.77
2022-12-31T21:00:12.005Z,14.18
2022-12-31T21:02:42.602Z,16.80
2022-12-31T21:05:11.993Z,18.48
2022-12-31T21:07:41.437Z,23.15
2022-12-31T21:10:10.241Z,25.85
2022-12-31T21:12:43.692Z,13.20
2022-12-31T21:15:12.623Z,11.80
2022-12-31T21:17:40.654Z,12.90
2022-12-31T21:20:10.215Z,13.00
2022-12-31T21:22:38.469Z,11.77
2022-12-31T21:25:08.716Z,11.95
2022-12-31T21:27:37.163Z,11.35
2022-12-31T21:30:21.206Z,10.75
2022-12-31T21:32:49.506Z,11.50
2022-12-31T21:35:53.599Z,10.90
2022-12-31T21:38:07.911Z,9.77
2022-12-31T21:40:37.269Z,10.27
2022-12-31T21:43:05.249Z,9.32
2022-12-31T21:45:33.159Z,9.30
2022-12-31T21:48:18.635Z,9.55
2022-12-31T21:50:48.552Z,8.30
2022-12-31T21:53:23.473Z,8.80
2022-12-31T21:56:12.371Z,8.55
2022-12-31T21:58:41.956Z,9.10
2022-12-31T22:01:34.160Z,10.50
2022-12-31T22:04:02.194Z,9.93
2022-12-31T22:06:30.377Z,10.77
2022-12-31T22:08:58.517Z,13.35
2022-12-31T22:11:29.118Z,12.00
2022-12-31T22:13:57.430Z,11.75
2022-12-31T22:16:25.486Z,11.90
2022-12-31T22:18:56.552Z,11.70
2022-12-31T22:21:26.600Z,10.75
2022-12-31T22:23:55.826Z,11.27
2022-12-31T22:26:26.408Z,10.23
2022-12-31T22:28:59.709Z,11.18
2022-12-31T22:31:30.474Z,10.82
2022-12-31T22:33:59.845Z,10.10
2022-12-31T22:36:27.960Z,10.02
2022-12-31T22:38:58.473Z,10.38
2022-12-31T22:41:28.593Z,10.60
2022-12-31T22:44:04.556Z,9.88
2022-12-31T22:46:33.929Z,10.80
2022-12-31T22:49:04.054Z,11.32
2022-12-31T22:51:54.731Z,11.00
2022-12-31T22:54:21.455Z,11.85
2022-12-31T22:56:49.617Z,11.82
2022-12-31T22:59:18.975Z,12.02
2022-12-31T23:01:47.100Z,12.73
2022-12-31T23:04:15.145Z,12.35
2022-12-31T23:06:47.360Z,13.60
2022-12-31T23:09:34.817Z,14.02
2022-12-31T23:12:03.638Z,14.10
2022-12-31T23:14:50.410Z,14.23
2022-12-31T23:17:38.356Z,13.38
2022-12-31T23:20:25.438Z,14.45
2022-12-31T23:23:11.667Z,14.27
2022-12-31T23:25:42.076Z,13.68
2022-12-31T23:28:12.462Z,13.07
2022-12-31T23:30:42.997Z,13.90
2022-12-31T23:33:15.733Z,13.48
2022-12-31T23:35:44.077Z,13.98
2022-12-31T23:38:12.020Z,13.60
2022-12-31T23:40:39.934Z,13.57
2022-12-31T23:43:09.868Z,14.90
2022-12-31T23:45:38.200Z,14.52
2022-12-31T23:48:07.729Z,14.88
2022-12-31T23:50:35.675Z,14.80
2022-12-31T23:53:03.560Z,14.40
2022-12-31T23:55:31.482Z,13.25
2022-12-31T23:57:59.393Z,14.18
